Time;durP1;ratioP1;P1;durP2;ratioP2;P2;SDS_P1;SDS_P2;PMS_P1;PMS_P2;Temp;Humidity;BMP_temperature;BMP_pressure;BME280_temperature;BME280_humidity;BME280_pressure;Samples;Min_cycle;Max_cycle;Signal;HPM_P1;HPM_P2
2022/02/05 00:00:31;;;;;;;28.90;16.60;;;;;;;5.21;77.90;99131.60;130480;1268;106625;-84
2022/02/05 00:03:55;;;;;;;26.80;15.80;;;;;;;5.19;78.05;99131.21;130596;1268;108679;-84
2022/02/05 00:06:58;;;;;;;;;;;;;;;5.25;78.13;99124.14;130602;1268;108846;-84
2022/02/05 00:10:28;;;;;;;31.50;17.30;;;;;;;5.28;77.87;99110.06;130476;1267;108685;-84
2022/02/05 00:14:13;;;;;;;28.00;17.30;;;;;;;5.28;77.78;99113.08;130454;1268;108601;-85
2022/02/05 00:41:14;;;;;;;26.20;16.50;;;;;;;5.34;77.96;99091.02;130422;1265;108842;-83
2022/02/05 00:44:21;;;;;;;26.60;16.50;;;;;;;5.36;77.84;99090.98;130514;1268;108207;-79
2022/02/05 00:47:29;;;;;;;29.10;16.70;;;;;;;5.38;77.72;99089.93;130585;1267;107551;-84
2022/02/05 00:50:39;;;;;;;28.80;16.60;;;;;;;5.36;77.64;99092.52;130450;1267;109724;-83
2022/02/05 00:53:48;;;;;;;28.40;16.80;;;;;;;5.34;77.59;99092.05;130515;1268;108859;-84
2022/02/05 00:57:19;;;;;;;26.60;16.00;;;;;;;5.27;77.57;99097.33;130443;1268;108552;-83
2022/02/05 01:00:25;;;;;;;30.40;15.10;;;;;;;5.25;77.69;99099.02;130505;1268;108893;-83
2022/02/05 01:03:30;;;;;;;28.40;15.40;;;;;;;5.27;77.73;99098.34;130492;1267;108755;-88
2022/02/05 01:06:36;;;;;;;26.70;15.50;;;;;;;5.31;77.58;99094.73;130522;1267;108883;-88
2022/02/05 01:09:44;;;;;;;27.30;16.20;;;;;;;5.38;77.72;99097.84;130454;1267;107676;-87
2022/02/05 01:12:54;;;;;;;29.10;16.30;;;;;;;5.40;77.47;99080.73;130473;1267;108702;-88
2022/02/05 01:16:07;;;;;;;27.70;16.70;;;;;;;5.39;77.66;99071.60;130803;1267;108836;-90
2022/02/05 01:19:25;;;;;;;24.50;14.80;;;;;;;5.36;77.58;99070.67;130468;1268;107709;-90
2022/02/05 01:22:33;;;;;;;25.60;15.20;;;;;;;5.33;77.51;99070.73;130451;1268;107806;-90
2022/02/05 01:25:44;;;;;;;22.80;13.40;;;;;;;5.30;77.62;99054.67;130599;1268;107809;-90
2022/02/05 01:28:55;;;;;;;21.80;13.00;;;;;;;5.26;77.51;99039.77;130577;1268;107801;-89
2022/02/05 01:32:05;;;;;;;22.40;13.70;;;;;;;5.26;77.64;99034.77;130493;1268;107802;-87
2022/02/05 01:35:17;;;;;;;23.70;13.90;;;;;;;5.29;77.59;99031.27;130526;1267;107510;-87
2022/02/05 01:49:15;;;;;;;22.90;13.60;;;;;;;5.36;77.25;99024.16;130473;1268;107414;-88
2022/02/05 01:52:25;;;;;;;20.50;13.00;;;;;;;5.34;77.40;99023.21;130548;1267;107762;-88
2022/02/05 01:55:44;;;;;;;18.10;11.80;;;;;;;5.32;77.32;99018.91;130512;1267;107776;-86
2022/02/05 01:59:09;;;;;;;18.80;11.80;;;;;;;5.29;77.28;99015.74;130510;1267;107722;-87
2022/02/05 02:05:51;;;;;;;20.10;12.00;;;;;;;5.36;77.08;99011.73;130512;1268;108640;-84
2022/02/05 02:12:23;;;;;;;19.60;12.50;;;;;;;5.41;77.06;99013.80;130505;1267;109196;-88
2022/02/05 02:15:35;;;;;;;18.80;11.50;;;;;;;5.39;77.01;99017.08;130505;1268;107547;-87
2022/02/05 02:18:54;;;;;;;19.30;12.20;;;;;;;5.38;76.97;99023.08;130538;1268;107858;-88
2022/02/05 02:22:05;;;;;;;17.50;11.60;;;;;;;5.37;77.13;99021.77;130611;1268;107119;-85
2022/02/05 02:25:25;;;;;;;18.70;10.80;;;;;;;5.32;77.30;99018.67;130468;1268;107444;-84
2022/02/05 02:28:47;;;;;;;18.80;10.80;;;;;;;5.29;77.57;99010.66;130571;1268;107677;-82
2022/02/05 02:31:55;;;;;;;17.50;10.70;;;;;;;5.31;77.72;99002.38;130448;1268;108722;-84
2022/02/05 02:35:05;;;;;;;16.30;10.90;;;;;;;5.34;77.57;98995.08;130693;1268;108792;-85
2022/02/05 02:38:14;;;;;;;16.90;10.50;;;;;;;5.38;77.75;98997.42;130561;1268;108773;-87
2022/02/05 02:41:25;;;;;;;20.40;12.00;;;;;;;5.42;77.66;98994.29;130501;1268;106702;-86
2022/02/05 02:44:31;;;;;;;56.20;33.10;;;;;;;5.43;77.69;98995.34;130489;1268;107761;-88
2022/02/05 02:47:40;;;;;;;18.50;11.80;;;;;;;5.43;77.90;98990.13;130506;1268;107876;-86
2022/02/05 02:57:33;;;;;;;28.30;18.10;;;;;;;5.38;78.00;98984.09;130554;1268;107720;-85
2022/02/05 03:00:38;;;;;;;16.40;10.30;;;;;;;5.39;78.13;98981.30;130366;1268;108742;-85
2022/02/05 03:03:44;;;;;;;17.40;11.50;;;;;;;5.42;78.08;98982.02;130455;1268;108805;-86
2022/02/05 03:06:49;;;;;;;15.30;9.50;;;;;;;5.44;77.96;98979.79;130447;1268;108776;-86
2022/02/05 03:09:56;;;;;;;20.30;13.90;;;;;;;5.44;78.03;98972.37;130504;1268;107701;-86
2022/02/05 03:13:02;;;;;;;22.70;13.50;;;;;;;5.44;78.02;98971.45;130687;1268;108835;-89
2022/02/05 03:16:08;;;;;;;15.20;10.10;;;;;;;5.41;78.11;98971.96;130785;1268;107411;-91
2022/02/05 03:19:15;;;;;;;33.30;17.50;;;;;;;5.38;78.16;98967.83;130870;1268;107438;-89
2022/02/05 03:22:22;;;;;;;13.60;7.90;;;;;;;5.39;78.05;98974.05;130659;1268;107704;-81
2022/02/05 03:25:28;;;;;;;14.00;9.10;;;;;;;5.43;78.08;98969.45;130437;1267;108599;-83
2022/02/05 03:28:35;;;;;;;21.90;13.40;;;;;;;5.44;78.12;98979.59;130668;1268;108932;-86
2022/02/05 03:31:41;;;;;;;13.90;8.90;;;;;;;5.48;78.02;98978.11;130412;1268;105683;-84
2022/02/05 03:34:46;;;;;;;11.20;6.90;;;;;;;5.52;78.08;98981.45;130513;1268;109159;-85
2022/02/05 03:37:52;;;;;;;13.70;9.60;;;;;;;5.56;77.91;98973.20;130453;1267;108689;-84
2022/02/05 03:40:57;;;;;;;9.60;5.90;;;;;;;5.56;78.01;98975.29;130497;1268;108960;-84
2022/02/05 03:44:03;;;;;;;10.20;7.50;;;;;;;5.57;78.18;98975.00;130477;1268;108909;-83
2022/02/05 03:47:09;;;;;;;12.90;8.20;;;;;;;5.59;78.02;98972.17;130436;1268;109792;-86
2022/02/05 03:50:14;;;;;;;11.60;7.40;;;;;;;5.65;78.14;98973.14;130469;1268;108833;-84
2022/02/05 03:53:20;;;;;;;11.30;7.50;;;;;;;5.73;77.98;98977.15;130348;1270;108964;-86
2022/02/05 03:56:25;;;;;;;12.10;7.30;;;;;;;5.78;78.12;98983.77;130511;1268;108868;-86
2022/02/05 03:59:30;;;;;;;7.40;5.00;;;;;;;5.81;78.23;98998.33;130527;1267;108936;-85
2022/02/05 04:02:36;;;;;;;13.00;8.20;;;;;;;5.79;78.29;99008.38;130340;1268;107597;-85
2022/02/05 04:05:41;;;;;;;9.40;5.40;;;;;;;5.72;78.04;99030.50;130516;1268;108640;-85
2022/02/05 04:08:49;;;;;;;8.30;5.70;;;;;;;5.63;77.84;99047.17;130495;1268;108658;-86
2022/02/05 04:15:55;;;;;;;14.00;9.80;;;;;;;5.63;77.76;99041.53;130322;1268;108702;-84
2022/02/05 04:18:47;;;;;;;8.30;5.40;;;;;;;5.58;76.67;99085.85;130490;1268;109128;-85
2022/02/05 04:21:53;;;;;;;3.20;2.70;;;;;;;5.39;75.43;99109.66;130396;1268;108727;-85
2022/02/05 04:24:58;;;;;;;3.70;2.90;;;;;;;5.22;75.20;99117.02;130484;1268;108809;-87
2022/02/05 04:28:05;;;;;;;4.00;2.00;;;;;;;5.05;75.08;99132.51;130455;1268;106958;-84
2022/02/05 04:31:10;;;;;;;3.40;2.80;;;;;;;4.84;74.47;99133.82;130344;1268;108830;-86
2022/02/05 04:34:15;;;;;;;2.40;2.20;;;;;;;4.69;74.53;99152.43;130486;1268;107604;-87
2022/02/05 04:37:24;;;;;;;3.00;1.70;;;;;;;4.58;75.08;99167.57;130410;1269;106609;-87
2022/02/05 04:40:34;;;;;;;5.30;4.10;;;;;;;4.49;75.35;99174.89;130462;1268;108546;-88
2022/02/05 04:44:04;;;;;;;10.40;7.00;;;;;;;4.40;75.50;99178.86;130400;1269;108594;-86
2022/02/05 04:51:02;;;;;;;3.40;3.00;;;;;;;4.16;75.24;99198.36;130656;1268;106905;-89
2022/02/05 04:54:29;;;;;;;1.80;1.50;;;;;;;4.11;75.17;99209.86;130910;1268;107714;-88
2022/02/05 04:57:50;;;;;;;3.80;2.70;;;;;;;4.02;74.37;99226.12;130640;1268;107650;-82
2022/02/05 05:01:07;;;;;;;2.00;1.80;;;;;;;3.94;74.45;99234.89;130454;1268;108723;-80
2022/02/05 05:04:24;;;;;;;2.00;1.50;;;;;;;3.85;74.10;99233.23;130386;1268;106819;-79
2022/02/05 05:11:22;;;;;;;2.40;1.80;;;;;;;3.73;73.33;99253.82;130449;1268;108630;-81
2022/02/05 05:21:12;;;;;;;3.20;2.80;;;;;;;3.69;74.40;99292.65;130694;1268;108739;-81
2022/02/05 05:24:18;;;;;;;5.40;3.20;;;;;;;3.65;74.43;99312.07;130814;1268;109858;-80
2022/02/05 05:27:24;;;;;;;3.60;2.40;;;;;;;3.54;74.59;99311.18;130873;1268;108818;-80
2022/02/05 05:30:29;;;;;;;3.40;2.40;;;;;;;3.52;74.77;99316.11;131164;1268;108842;-80
2022/02/05 05:33:35;;;;;;;2.50;1.60;;;;;;;3.52;74.53;99319.67;130624;1268;108656;-81
2022/02/05 05:36:40;;;;;;;2.60;1.70;;;;;;;3.46;74.11;99325.44;130460;1268;108825;-84
2022/02/05 05:39:47;;;;;;;2.50;1.60;;;;;;;3.41;74.30;99336.40;130518;1268;108898;-81
2022/02/05 05:42:59;;;;;;;2.60;1.10;;;;;;;3.39;74.29;99346.95;130504;1268;108702;-80
2022/02/05 05:46:17;;;;;;;1.50;1.00;;;;;;;3.40;74.44;99354.27;130513;1268;108600;-80
2022/02/05 05:49:34;;;;;;;2.00;1.30;;;;;;;3.42;74.44;99359.23;130387;1268;108622;-82
2022/02/05 05:52:39;;;;;;;6.80;3.60;;;;;;;3.49;74.23;99367.21;130320;1268;108632;-80
2022/02/05 05:55:47;;;;;;;32.70;15.30;;;;;;;3.42;74.06;99379.05;130374;1267;108776;-83
2022/02/05 05:58:53;;;;;;;33.60;19.30;;;;;;;3.37;74.42;99381.01;130515;1268;108755;-81
2022/02/05 06:01:58;;;;;;;18.10;7.80;;;;;;;3.31;74.34;99380.52;130466;1268;109569;-82
2022/02/05 06:05:04;;;;;;;69.10;30.00;;;;;;;3.27;74.49;99392.45;130511;1267;108794;-83
2022/02/05 06:08:09;;;;;;;105.90;42.60;;;;;;;3.30;74.73;99402.35;130797;1268;108193;-87
2022/02/05 06:11:15;;;;;;;73.20;31.20;;;;;;;3.35;74.71;99413.75;130653;1268;108907;-82
2022/02/05 06:14:23;;;;;;;68.20;31.00;;;;;;;3.41;74.73;99412.55;130672;1268;107653;-80
2022/02/05 06:17:29;;;;;;;14.90;6.60;;;;;;;3.42;74.53;99424.95;130620;1268;108728;-80
2022/02/05 06:20:34;;;;;;;9.10;3.90;;;;;;;3.38;74.76;99437.36;130449;1268;107420;-80
2022/02/05 06:23:40;;;;;;;51.60;27.30;;;;;;;3.33;74.72;99438.30;130366;1268;108704;-81
2022/02/05 06:26:45;;;;;;;80.30;35.50;;;;;;;3.35;74.85;99449.03;130368;1268;108796;-81
2022/02/05 06:29:51;;;;;;;34.10;15.50;;;;;;;3.36;74.94;99453.23;130454;1268;108903;-81
2022/02/05 06:32:56;;;;;;;24.50;12.00;;;;;;;3.38;74.66;99455.66;130452;1268;108589;-79
2022/02/05 06:36:02;;;;;;;47.30;21.10;;;;;;;3.42;74.30;99468.88;130313;1268;109132;-81
2022/02/05 06:39:07;;;;;;;105.10;51.30;;;;;;;3.44;74.45;99469.03;130466;1268;108612;-81
2022/02/05 06:42:13;;;;;;;70.80;36.40;;;;;;;3.47;74.05;99476.57;130414;1268;108821;-82
2022/02/05 06:45:19;;;;;;;21.20;9.00;;;;;;;3.50;74.22;99480.69;130456;1268;108962;-82
2022/02/05 06:48:24;;;;;;;74.30;39.60;;;;;;;3.46;73.92;99485.43;130435;1268;108855;-80
2022/02/05 06:51:30;;;;;;;33.60;18.30;;;;;;;3.47;74.14;99484.77;130460;1268;108592;-81
2022/02/05 06:54:37;;;;;;;20.30;11.60;;;;;;;3.46;74.01;99491.03;130459;1268;108826;-79
2022/02/05 06:57:43;;;;;;;6.70;3.40;;;;;;;3.42;73.84;99486.50;130327;1268;108665;-81
2022/02/05 07:00:48;;;;;;;13.50;8.50;;;;;;;3.38;73.85;99495.21;130463;1268;109733;-78
2022/02/05 07:03:53;;;;;;;16.30;10.20;;;;;;;3.38;74.01;99499.96;130288;1268;108996;-80
2022/02/05 07:06:59;;;;;;;15.70;9.10;;;;;;;3.39;73.50;99514.34;130380;1268;108944;-75
2022/02/05 07:10:07;;;;;;;12.50;6.40;;;;;;;3.33;73.57;99511.83;130361;1268;108746;-74
2022/02/05 07:13:15;;;;;;;11.10;5.30;;;;;;;3.29;73.58;99524.42;130345;1268;109500;-75
2022/02/05 07:16:25;;;;;;;5.50;2.60;;;;;;;3.24;73.63;99523.98;130348;1268;108625;-75
2022/02/05 07:19:43;;;;;;;5.40;2.60;;;;;;;3.21;73.29;99527.01;130337;1268;108709;-75
2022/02/05 07:23:10;;;;;;;8.10;3.50;;;;;;;3.22;73.28;99530.30;130252;1268;108719;-75
2022/02/05 07:29:38;;;;;;;3.10;1.30;;;;;;;3.36;73.35;99537.08;130366;1268;108733;-77
2022/02/05 07:32:43;;;;;;;2.90;1.50;;;;;;;3.50;73.21;99545.79;130373;1268;108828;-77
2022/02/05 07:35:49;;;;;;;6.20;2.30;;;;;;;3.55;73.15;99542.34;130338;1268;108717;-77
2022/02/05 07:38:54;;;;;;;48.50;23.70;;;;;;;3.54;72.79;99552.45;130261;1268;107761;-75
2022/02/05 07:42:02;;;;;;;48.20;24.50;;;;;;;3.59;72.82;99559.13;130252;1267;108917;-76
2022/02/05 07:45:08;;;;;;;10.70;5.50;;;;;;;3.60;73.01;99558.34;130391;1267;108870;-74
2022/02/05 07:48:14;;;;;;;12.30;5.80;;;;;;;3.65;73.45;99568.82;130386;1268;108933;-77
2022/02/05 07:51:20;;;;;;;12.30;5.90;;;;;;;3.73;73.46;99573.63;130452;1267;108939;-77
2022/02/05 07:54:26;;;;;;;8.90;3.30;;;;;;;3.81;73.34;99583.33;130371;1268;108739;-77
2022/02/05 07:57:31;;;;;;;6.80;2.40;;;;;;;3.90;73.06;99588.56;130437;1268;108798;-76
2022/02/05 08:00:36;;;;;;;5.00;1.60;;;;;;;3.93;73.13;99584.25;130547;1268;108536;-75
2022/02/05 08:03:41;;;;;;;4.30;1.60;;;;;;;3.96;72.76;99586.33;130381;1268;108765;-78
2022/02/05 08:06:48;;;;;;;14.80;3.40;;;;;;;3.97;72.79;99587.67;130313;1268;108700;-76
2022/02/05 08:09:57;;;;;;;3.70;1.70;;;;;;;3.98;72.62;99591.81;130231;1270;108591;-74
2022/02/05 08:13:03;;;;;;;7.00;2.10;;;;;;;4.00;72.65;99596.60;130362;1268;108834;-74
2022/02/05 08:16:24;;;;;;;8.10;2.60;;;;;;;3.97;72.69;99604.59;130371;1268;108714;-75
2022/02/05 08:19:30;;;;;;;10.30;2.70;;;;;;;3.96;72.76;99609.73;130409;1268;108654;-75
2022/02/05 08:22:35;;;;;;;6.90;2.20;;;;;;;3.99;72.52;99609.00;130323;1268;108699;-74
2022/02/05 08:25:41;;;;;;;4.90;1.50;;;;;;;3.99;72.99;99622.48;130337;1268;108745;-78
2022/02/05 08:28:46;;;;;;;5.30;1.90;;;;;;;4.01;72.32;99638.18;130329;1267;108763;-74
2022/02/05 08:31:52;;;;;;;6.10;2.40;;;;;;;4.06;72.72;99635.67;130409;1267;108929;-75
2022/02/05 08:34:59;;;;;;;5.40;2.40;;;;;;;4.16;72.44;99628.16;130329;1268;108860;-76
2022/02/05 08:38:05;;;;;;;7.30;3.80;;;;;;;4.28;72.42;99630.09;130497;1268;108724;-76
2022/02/05 08:41:10;;;;;;;7.60;2.80;;;;;;;4.41;71.93;99633.80;130339;1268;108835;-75
2022/02/05 08:44:16;;;;;;;5.50;2.30;;;;;;;4.41;71.83;99636.16;130430;1268;108891;-77
2022/02/05 08:47:21;;;;;;;5.70;3.10;;;;;;;4.44;72.19;99638.00;130393;1267;108929;-74
2022/02/05 08:50:28;;;;;;;6.10;2.80;;;;;;;4.40;71.98;99638.68;130488;1267;109335;-75
2022/02/05 08:53:34;;;;;;;7.20;3.70;;;;;;;4.38;71.70;99643.56;130469;1268;108824;-75
2022/02/05 08:56:39;;;;;;;6.70;4.00;;;;;;;4.41;71.80;99648.97;130377;1268;108871;-76
2022/02/05 08:59:52;;;;;;;4.10;1.80;;;;;;;4.43;71.26;99644.90;130375;1267;108838;-75
2022/02/05 09:03:01;;;;;;;6.30;2.40;;;;;;;4.41;71.31;99648.45;130324;1267;108700;-74
2022/02/05 09:06:07;;;;;;;5.80;2.40;;;;;;;4.54;71.97;99646.78;130330;1268;108769;-77
2022/02/05 09:09:21;;;;;;;16.80;6.90;;;;;;;4.69;71.84;99647.12;130404;1268;109127;-76
2022/02/05 09:12:43;;;;;;;5.60;2.10;;;;;;;4.81;71.51;99639.11;130400;1267;108789;-75
2022/02/05 09:15:48;;;;;;;4.60;2.10;;;;;;;4.88;72.10;99645.83;130390;1268;107631;-76
2022/02/05 09:18:54;;;;;;;5.00;2.10;;;;;;;4.95;71.40;99643.48;130357;1267;108740;-77
2022/02/05 09:21:59;;;;;;;9.90;5.20;;;;;;;4.97;71.46;99646.52;130382;1268;107704;-77
2022/02/05 09:25:05;;;;;;;19.70;11.50;;;;;;;5.02;71.32;99648.88;130365;1267;108907;-76
2022/02/05 09:28:11;;;;;;;6.30;2.70;;;;;;;5.06;71.29;99654.91;130253;1268;108594;-75
2022/02/05 09:31:28;;;;;;;12.60;5.20;;;;;;;5.06;71.11;99654.67;130428;1268;108756;-76
2022/02/05 09:34:34;;;;;;;21.40;10.90;;;;;;;5.16;71.13;99655.09;130367;1268;108462;-76
2022/02/05 09:37:39;;;;;;;24.00;12.40;;;;;;;5.24;71.31;99656.33;130327;1268;108770;-76
2022/02/05 09:40:45;;;;;;;20.20;11.30;;;;;;;5.30;70.71;99658.48;130321;1268;108880;-76
2022/02/05 09:43:52;;;;;;;124.10;49.30;;;;;;;5.33;70.71;99658.71;130308;1268;108641;-76
2022/02/05 09:46:57;;;;;;;25.40;13.50;;;;;;;5.39;70.68;99662.29;130347;1268;108209;-74
2022/02/05 09:50:04;;;;;;;12.40;6.30;;;;;;;5.44;70.52;99664.65;130335;1267;108797;-75
2022/02/05 09:53:15;;;;;;;21.00;10.00;;;;;;;5.53;70.61;99669.50;130455;1267;108705;-76
2022/02/05 09:56:23;;;;;;;23.90;13.20;;;;;;;5.59;70.50;99667.26;130378;1268;108593;-74
2022/02/05 09:59:28;;;;;;;31.00;17.00;;;;;;;5.59;70.18;99667.02;130465;1268;108774;-74
2022/02/05 10:02:37;;;;;;;24.30;15.50;;;;;;;5.59;70.71;99667.06;130366;1268;108695;-75
2022/02/05 10:05:43;;;;;;;17.80;10.40;;;;;;;5.59;70.95;99667.23;130426;1266;108760;-77
2022/02/05 10:08:58;;;;;;;126.80;69.10;;;;;;;5.60;70.63;99670.88;130369;1268;108759;-77
2022/02/05 10:12:07;;;;;;;64.70;27.20;;;;;;;5.60;70.30;99674.23;130359;1268;108725;-75
2022/02/05 10:15:13;;;;;;;20.10;9.50;;;;;;;5.64;70.48;99669.30;130445;1268;108801;-75
2022/02/05 10:18:26;;;;;;;17.20;7.80;;;;;;;5.69;70.16;99669.11;130422;1268;108796;-76
2022/02/05 10:21:32;;;;;;;14.10;7.40;;;;;;;5.73;70.29;99673.19;130393;1267;108950;-77
2022/02/05 10:24:50;;;;;;;14.90;7.60;;;;;;;5.74;69.93;99667.45;130385;1268;108167;-77
2022/02/05 10:27:56;;;;;;;12.80;7.00;;;;;;;5.80;70.13;99659.56;130482;1268;108710;-79
2022/02/05 10:31:02;;;;;;;9.10;5.20;;;;;;;5.87;70.05;99654.69;130441;1268;108795;-76
2022/02/05 10:34:13;;;;;;;13.10;5.90;;;;;;;5.90;69.94;99660.42;130327;1268;108872;-77
2022/02/05 10:37:23;;;;;;;24.40;7.50;;;;;;;5.94;69.83;99662.17;130498;1268;108706;-76
2022/02/05 10:40:44;;;;;;;24.60;8.30;;;;;;;5.89;68.49;99666.30;130330;1267;108824;-77
2022/02/05 10:43:50;;;;;;;11.00;5.80;;;;;;;5.78;69.27;99675.42;130438;1268;108590;-76
2022/02/05 10:46:57;;;;;;;9.70;5.10;;;;;;;5.65;68.44;99677.27;130348;1268;108593;-76
2022/02/05 10:50:06;;;;;;;8.90;5.10;;;;;;;5.64;69.22;99677.21;130561;1268;108674;-76
2022/02/05 10:53:21;;;;;;;18.50;10.60;;;;;;;5.64;69.05;99679.10;130421;1267;108857;-76
2022/02/05 10:56:31;;;;;;;17.70;9.20;;;;;;;5.62;69.47;99681.94;130420;1268;108571;-77
2022/02/05 11:05:14;;;;;;;14.40;8.50;;;;;;;5.64;69.79;99678.98;130536;1267;108563;-75
2022/02/05 11:07:02;;;;;;;12.20;7.30;;;;;;;5.61;69.30;99678.55;130510;1267;108743;-82
2022/02/05 11:14:57;;;;;;;26.00;10.70;;;;;;;5.55;68.75;99685.38;130445;1268;107694;-77
2022/02/05 11:20:29;;;;;;;;;;;;;;;5.53;68.68;99688.91;131199;1267;108804;-82
2022/02/05 11:23:35;;;;;;;11.80;5.70;;;;;;;5.55;68.45;99686.46;130893;1268;109468;-85
2022/02/05 11:26:41;;;;;;;9.50;4.40;;;;;;;5.47;68.19;99685.02;130673;1268;108781;-77
2022/02/05 11:29:47;;;;;;;7.90;4.00;;;;;;;5.36;68.42;99697.35;130386;1268;109362;-78
2022/02/05 11:32:52;;;;;;;11.00;5.10;;;;;;;5.31;68.47;99689.03;130450;1268;108932;-78
2022/02/05 11:39:49;;;;;;;43.40;21.80;;;;;;;5.30;69.02;99686.17;130466;1267;107857;-79
2022/02/05 11:43:18;;;;;;;37.40;19.20;;;;;;;5.25;68.16;99690.97;130621;1268;108492;-80
2022/02/05 11:46:24;;;;;;;43.80;21.40;;;;;;;5.11;68.45;99690.60;130611;1268;109216;-80
2022/02/05 11:50:07;;;;;;;52.50;28.90;;;;;;;5.02;69.46;99688.02;130499;1268;107715;-79
2022/02/05 11:53:12;;;;;;;12.80;7.30;;;;;;;5.03;69.41;99697.48;130486;1268;108748;-84
2022/02/05 11:56:19;;;;;;;22.00;13.40;;;;;;;4.98;68.84;99707.39;130610;1268;108820;-84
2022/02/05 11:59:27;;;;;;;10.90;6.50;;;;;;;4.95;69.28;99715.08;130581;1268;107607;-82
2022/02/05 12:02:41;;;;;;;1324.00;481.40;;;;;;;5.06;69.17;99713.96;130666;1268;108751;-82
2022/02/05 12:05:54;;;;;;;138.80;47.30;;;;;;;5.18;69.06;99722.34;130620;1268;109795;-80
2022/02/05 12:08:59;;;;;;;44.60;18.00;;;;;;;5.28;68.92;99723.02;130415;1268;108943;-83
2022/02/05 12:12:40;;;;;;;23.10;10.60;;;;;;;5.28;68.86;99723.16;130560;1268;107650;-79
2022/02/05 12:15:48;;;;;;;18.50;11.30;;;;;;;5.18;68.34;99721.63;130518;1270;107609;-83
2022/02/05 12:19:16;;;;;;;14.20;8.40;;;;;;;5.14;68.66;99722.80;130578;1268;108831;-79
2022/02/05 12:22:29;;;;;;;11.30;6.30;;;;;;;5.23;68.70;99722.52;130712;1268;107646;-78
2022/02/05 12:25:54;;;;;;;11.90;7.00;;;;;;;5.35;68.77;99718.91;130935;1268;108792;-78
2022/02/05 12:29:01;;;;;;;10.20;6.70;;;;;;;5.41;68.45;99718.87;130493;1267;108893;-76
2022/02/05 12:32:09;;;;;;;277.00;85.10;;;;;;;5.39;68.47;99718.16;130661;1267;108635;-77
2022/02/05 12:35:14;;;;;;;406.40;107.20;;;;;;;5.48;68.46;99720.55;130605;1267;109096;-81
2022/02/05 12:38:20;;;;;;;100.00;23.00;;;;;;;5.53;68.55;99716.80;131442;1267;107975;-78
2022/02/05 12:41:29;;;;;;;325.60;110.60;;;;;;;5.50;67.96;99719.88;130535;1268;109420;-78
2022/02/05 12:44:38;;;;;;;40.80;17.40;;;;;;;5.44;68.52;99718.41;130593;1267;108715;-75
2022/02/05 12:47:44;;;;;;;21.90;8.40;;;;;;;5.42;68.23;99717.53;130389;1268;108740;-78
2022/02/05 12:50:50;;;;;;;12.00;6.20;;;;;;;5.41;68.21;99719.77;130678;1267;108812;-74
2022/02/05 12:54:04;;;;;;;8.70;4.60;;;;;;;5.39;67.38;99725.58;130341;1268;106735;-73
2022/02/05 12:57:18;;;;;;;64.50;23.40;;;;;;;5.37;67.88;99722.56;130293;1268;108917;-74
2022/02/05 13:00:24;;;;;;;35.80;13.20;;;;;;;5.50;68.00;99716.31;130303;1268;108735;-75
2022/02/05 13:03:30;;;;;;;117.40;34.20;;;;;;;5.64;68.02;99708.02;130308;1268;108742;-75
2022/02/05 13:06:35;;;;;;;383.90;88.60;;;;;;;5.86;67.94;99712.67;131546;1267;108740;-77
2022/02/05 13:09:47;;;;;;;378.10;99.30;;;;;;;6.01;67.47;99716.15;130747;1267;108569;-79
2022/02/05 13:12:56;;;;;;;155.90;54.80;;;;;;;6.05;67.37;99725.31;130634;1268;108726;-79
2022/02/05 13:16:02;;;;;;;30.40;11.60;;;;;;;5.93;67.26;99731.09;130805;1267;109135;-80
2022/02/05 13:19:20;;;;;;;1214.70;442.20;;;;;;;5.59;68.49;99729.66;131495;1268;108842;-76
2022/02/05 13:26:05;;;;;;;179.80;132.60;;;;;;;5.38;69.03;99734.68;130511;1267;109014;-81
2022/02/05 13:29:23;;;;;;;19.80;11.50;;;;;;;5.37;68.79;99735.98;130752;1267;108824;-81
2022/02/05 13:36:06;;;;;;;34.00;18.30;;;;;;;5.28;68.32;99752.76;130704;1267;108818;-76
2022/02/05 13:39:26;;;;;;;13.60;6.10;;;;;;;5.24;68.55;99746.61;130602;1267;108830;-75
2022/02/05 13:42:37;;;;;;;108.00;66.00;;;;;;;5.28;68.50;99746.08;130701;1267;108466;-75
2022/02/05 13:45:43;;;;;;;51.70;29.50;;;;;;;5.42;68.44;99748.24;130501;1268;108610;-77
2022/02/05 13:48:49;;;;;;;74.50;40.60;;;;;;;5.45;68.08;99750.27;130735;1267;108790;-76
2022/02/05 13:51:55;;;;;;;53.80;30.10;;;;;;;5.52;68.39;99743.85;130484;1268;107044;-77
2022/02/05 13:55:14;;;;;;;20.90;11.10;;;;;;;5.62;68.33;99743.16;130550;1267;109560;-76
2022/02/05 13:58:20;;;;;;;26.00;15.40;;;;;;;5.65;68.42;99743.41;130697;1266;108507;-76
2022/02/05 14:01:33;;;;;;;17.60;10.70;;;;;;;5.70;68.21;99745.66;130633;1267;108900;-79
2022/02/05 14:04:39;;;;;;;18.90;12.80;;;;;;;5.72;67.83;99745.27;130573;1267;108774;-74
2022/02/05 14:07:46;;;;;;;13.00;6.00;;;;;;;5.68;67.70;99743.00;130516;1267;108896;-74
2022/02/05 14:11:01;;;;;;;10.80;5.60;;;;;;;5.63;67.70;99749.79;130537;1268;108667;-77
2022/02/05 14:14:12;;;;;;;15.80;8.00;;;;;;;5.55;67.51;99758.65;130575;1267;109003;-75
2022/02/05 14:17:19;;;;;;;22.60;9.20;;;;;;;5.43;67.84;99765.95;130345;1269;109078;-75
2022/02/05 14:20:24;;;;;;;58.20;24.60;;;;;;;5.39;67.73;99787.00;130498;1268;108769;-76
2022/02/05 14:23:31;;;;;;;37.10;11.90;;;;;;;5.22;67.72;99807.96;130664;1267;108745;-75
2022/02/05 14:26:42;;;;;;;58.90;23.20;;;;;;;4.81;70.65;99830.29;130410;1268;108717;-74
2022/02/05 14:29:56;;;;;;;27.50;14.90;;;;;;;4.27;71.62;99825.15;130421;1268;108865;-76
2022/02/05 14:33:06;;;;;;;17.00;9.90;;;;;;;4.03;72.33;99826.02;130393;1268;108687;-76
2022/02/05 14:36:34;;;;;;;16.70;8.80;;;;;;;3.93;72.47;99818.16;130516;1266;108615;-74
2022/02/05 14:43:03;;;;;;;22.30;10.90;;;;;;;3.90;72.56;99824.33;130470;1267;108547;-75
2022/02/05 14:46:08;;;;;;;32.60;19.70;;;;;;;3.81;73.07;99827.86;130389;1268;108897;-76
2022/02/05 14:49:14;;;;;;;10.90;5.90;;;;;;;3.78;74.05;99824.58;130501;1268;108501;-74
2022/02/05 14:52:19;;;;;;;31.20;18.50;;;;;;;3.60;73.55;99831.78;130316;1268;108900;-73
2022/02/05 14:55:25;;;;;;;71.10;27.40;;;;;;;3.55;73.73;99843.30;130584;1268;108681;-72
2022/02/05 14:58:30;;;;;;;215.60;60.80;;;;;;;3.51;73.71;99845.30;130463;1268;108852;-74
2022/02/05 15:01:36;;;;;;;64.60;23.70;;;;;;;3.54;73.37;99854.45;130423;1267;108935;-75
2022/02/05 15:04:44;;;;;;;161.20;56.90;;;;;;;3.62;73.41;99864.95;130461;1267;108695;-75
2022/02/05 15:07:50;;;;;;;272.10;72.80;;;;;;;3.63;73.82;99866.62;130388;1267;107996;-75
2022/02/05 15:10:55;;;;;;;108.40;25.20;;;;;;;3.59;73.15;99871.13;130383;1268;107693;-75
2022/02/05 15:14:02;;;;;;;89.00;25.10;;;;;;;3.52;73.02;99877.80;130407;1268;108854;-75
2022/02/05 15:17:08;;;;;;;72.60;24.40;;;;;;;3.40;72.54;99887.81;130410;1268;107193;-75
2022/02/05 15:20:16;;;;;;;75.50;22.00;;;;;;;3.29;72.28;99891.46;130439;1268;107624;-76
2022/02/05 15:23:22;;;;;;;7.80;3.90;;;;;;;3.19;72.24;99897.38;130449;1267;108664;-77
2022/02/05 15:26:31;;;;;;;43.60;18.00;;;;;;;3.11;72.05;99896.12;130402;1268;108605;-76
2022/02/05 15:29:37;;;;;;;91.80;34.80;;;;;;;3.05;72.30;99904.69;130526;1267;108584;-80
2022/02/05 15:32:43;;;;;;;203.10;70.30;;;;;;;2.99;72.09;99909.70;130475;1267;108860;-76
2022/02/05 15:35:49;;;;;;;29.50;11.40;;;;;;;3.00;72.23;99914.58;130494;1267;107275;-74
2022/02/05 15:39:10;;;;;;;64.60;29.60;;;;;;;2.99;72.39;99923.42;130388;1268;108847;-74
2022/02/05 15:45:39;;;;;;;19.70;10.00;;;;;;;2.98;72.28;99942.10;130366;1268;108778;-73
2022/02/05 15:48:45;;;;;;;11.10;6.10;;;;;;;3.00;72.39;99941.82;130296;1268;108764;-72
2022/02/05 15:51:50;;;;;;;23.60;14.50;;;;;;;3.05;72.12;99949.11;130381;1268;108508;-74
2022/02/05 15:54:58;;;;;;;10.90;5.00;;;;;;;3.10;72.21;99950.88;130426;1268;108984;-74
2022/02/05 15:58:09;;;;;;;15.60;10.10;;;;;;;3.13;72.30;99956.23;130405;1267;108974;-76
2022/02/05 16:01:15;;;;;;;20.90;9.10;;;;;;;3.16;72.37;99959.59;130416;1268;108759;-75
2022/02/05 16:04:22;;;;;;;33.80;19.00;;;;;;;3.18;72.42;99961.44;130358;1268;108318;-74